Time;durP1;ratioP1;P1;durP2;ratioP2;P2;SDS_P1;SDS_P2;PMS_P1;PMS_P2;Temp;Humidity;BMP_temperature;BMP_pressure;BME280_temperature;BME280_humidity;BME280_pressure;Samples;Min_cycle;Max_cycle;Signal;HPM_P1;HPM_P2
2022/04/15 00:01:22;;;;;;;4.60;2.67;;;12.30;99.90;;;;;;5011985;28;20438;-72
2022/04/15 00:03:49;;;;;;;4.13;2.90;;;12.40;99.90;;;;;;5012129;28;20463;-72
2022/04/15 00:06:16;;;;;;;3.97;2.53;;;12.40;99.90;;;;;;5029785;28;20486;-72
2022/04/15 00:08:42;;;;;;;3.90;2.40;;;12.50;99.90;;;;;;5030052;28;20422;-72
2022/04/15 00:11:09;;;;;;;3.40;2.40;;;12.40;99.90;;;;;;5029914;28;20428;-72
2022/04/15 00:13:35;;;;;;;4.00;2.20;;;12.40;99.90;;;;;;5030069;28;20821;-73
2022/04/15 00:16:05;;;;;;;3.17;1.97;;;12.40;99.90;;;;;;5012543;28;20445;-72
2022/04/15 00:18:32;;;;;;;4.77;2.40;;;12.30;99.90;;;;;;5030249;28;20433;-72
2022/04/15 00:20:58;;;;;;;2.93;2.30;;;12.30;99.90;;;;;;5030273;28;20901;-72
2022/04/15 00:23:24;;;;;;;4.03;2.30;;;12.20;99.90;;;;;;5030094;28;20425;-72
2022/04/15 00:25:51;;;;;;;6.07;2.73;;;12.20;99.90;;;;;;5029744;28;20477;-72
2022/04/15 00:28:18;;;;;;;3.83;2.70;;;12.20;99.90;;;;;;5029780;28;20425;-72
2022/04/15 00:30:43;;;;;;;9.00;3.20;;;12.00;99.90;;;;;;5011881;28;20432;-72
2022/04/15 00:33:09;;;;;;;3.23;2.60;;;12.10;99.90;;;;;;5029639;28;20428;-72
2022/04/15 00:35:35;;;;;;;5.97;2.87;;;12.10;99.90;;;;;;5029640;28;20201;-73
2022/04/15 00:38:00;;;;;;;5.30;2.93;;;12.10;99.90;;;;;;5029374;28;20192;-71
2022/04/15 00:40:26;;;;;;;4.93;3.00;;;12.10;99.90;;;;;;5011653;28;21006;-71
2022/04/15 00:42:52;;;;;;;7.03;2.80;;;12.20;99.90;;;;;;5029203;28;20192;-72
2022/04/15 00:45:17;;;;;;;6.03;2.70;;;12.20;99.90;;;;;;5028997;28;20210;-72
2022/04/15 00:47:55;;;;;;;3.30;3.00;;;12.20;99.90;;;;;;5029092;28;20203;-71
2022/04/15 00:50:22;;;;;;;4.50;2.63;;;12.20;99.90;;;;;;5011641;28;20317;-71
2022/04/15 00:52:50;;;;;;;5.87;3.47;;;12.20;99.90;;;;;;5029241;28;20421;-71
2022/04/15 00:55:21;;;;;;;5.70;2.97;;;12.00;99.90;;;;;;5029204;28;20537;-71
2022/04/15 00:57:50;;;;;;;4.70;3.47;;;11.70;99.90;;;;;;5011211;28;20443;-71
2022/04/15 01:00:16;;;;;;;3.20;2.90;;;11.60;99.90;;;;;;5011655;28;20422;-71
2022/04/15 01:02:44;;;;;;;8.07;2.97;;;11.80;99.90;;;;;;5028961;28;20421;-71
2022/04/15 01:05:10;;;;;;;4.47;2.97;;;11.50;99.90;;;;;;5028842;28;20517;-71
2022/04/15 01:07:38;;;;;;;12.00;2.77;;;11.60;99.90;;;;;;5028902;28;20453;-71
2022/04/15 01:10:09;;;;;;;3.00;2.70;;;11.60;99.90;;;;;;5011285;28;20488;-72
2022/04/15 01:12:38;;;;;;;5.33;2.87;;;11.70;99.90;;;;;;5029145;28;20419;-72
2022/04/15 01:15:08;;;;;;;5.83;2.80;;;11.70;99.90;;;;;;5028696;28;20407;-72
2022/04/15 01:17:33;;;;;;;5.60;2.83;;;11.70;99.90;;;;;;5028692;28;20451;-72
2022/04/15 01:20:00;;;;;;;6.53;3.40;;;11.70;99.90;;;;;;5028283;28;20473;-72
2022/04/15 01:22:32;;;;;;;7.37;3.53;;;11.60;99.90;;;;;;5028749;28;21262;-73
2022/04/15 01:24:58;;;;;;;7.40;3.50;;;11.70;99.90;;;;;;5028634;28;20450;-71
2022/04/15 01:27:35;;;;;;;6.47;3.27;;;11.60;99.90;;;;;;5028601;28;21292;-71
2022/04/15 01:30:01;;;;;;;7.07;2.90;;;11.50;99.90;;;;;;5010919;28;20245;-71
2022/04/15 01:32:27;;;;;;;3.30;2.60;;;11.60;99.90;;;;;;5028712;28;20774;-71
2022/04/15 01:34:53;;;;;;;2.73;2.53;;;11.60;99.90;;;;;;5028707;28;20424;-71
2022/04/15 01:37:21;;;;;;;7.23;3.13;;;11.50;99.90;;;;;;5028474;28;20196;-71
2022/04/15 01:39:47;;;;;;;3.17;2.13;;;11.50;99.90;;;;;;5028545;28;20659;-71
2022/04/15 01:42:14;;;;;;;2.90;2.67;;;11.40;99.90;;;;;;5028587;28;20522;-71
2022/04/15 01:44:41;;;;;;;2.23;2.03;;;11.40;99.90;;;;;;5028551;28;20417;-71
2022/04/15 01:47:08;;;;;;;2.73;2.53;;;11.40;99.90;;;;;;5028384;28;20890;-71
2022/04/15 01:49:33;;;;;;;4.27;3.20;;;11.20;99.90;;;;;;5028589;28;20918;-70
2022/04/15 01:51:59;;;;;;;5.67;2.77;;;11.20;99.90;;;;;;5028467;28;20428;-71
2022/04/15 01:54:28;;;;;;;4.63;3.50;;;11.10;99.90;;;;;;5028666;28;20182;-71
2022/04/15 01:56:54;;;;;;;6.87;3.77;;;11.00;99.90;;;;;;5028345;28;20221;-71
2022/04/15 01:59:20;;;;;;;3.90;3.33;;;10.90;99.90;;;;;;5030062;28;20426;-71
2022/04/15 02:01:46;;;;;;;6.60;3.07;;;10.70;99.90;;;;;;5010585;28;20958;-71
2022/04/15 02:04:11;;;;;;;9.63;4.07;;;10.70;99.90;;;;;;5010506;28;20878;-71
2022/04/15 02:06:37;;;;;;;7.50;3.27;;;10.70;99.90;;;;;;5028143;28;20279;-71
2022/04/15 02:09:03;;;;;;;4.70;3.03;;;10.80;99.90;;;;;;5010503;28;20183;-72
2022/04/15 02:11:28;;;;;;;7.60;3.50;;;10.90;99.90;;;;;;5028230;28;20757;-72
2022/04/15 02:13:54;;;;;;;3.10;2.80;;;11.00;99.90;;;;;;5028158;28;20681;-72
2022/04/15 02:16:20;;;;;;;6.57;3.90;;;10.90;99.90;;;;;;5028143;28;20210;-72
2022/04/15 02:18:45;;;;;;;7.87;3.40;;;10.90;99.90;;;;;;5028282;28;20186;-71
2022/04/15 02:21:11;;;;;;;8.33;3.53;;;10.90;99.90;;;;;;5028098;28;20191;-71
2022/04/15 02:23:36;;;;;;;5.37;3.80;;;10.90;99.90;;;;;;5028086;28;20189;-71
2022/04/15 02:26:02;;;;;;;6.60;3.73;;;10.70;99.90;;;;;;5009974;28;20271;-71
2022/04/15 02:28:28;;;;;;;10.13;4.20;;;10.60;99.90;;;;;;5027932;28;20186;-71
2022/04/15 02:30:54;;;;;;;6.73;3.63;;;10.50;99.90;;;;;;5028420;28;20182;-71
2022/04/15 02:33:20;;;;;;;7.17;4.20;;;10.50;99.90;;;;;;5031550;28;20179;-72
2022/04/15 02:35:45;;;;;;;6.63;3.47;;;10.50;99.90;;;;;;5031488;28;20441;-72
2022/04/15 02:38:11;;;;;;;7.60;5.10;;;10.60;99.90;;;;;;5031452;28;20188;-71
2022/04/15 02:40:37;;;;;;;3.73;3.37;;;10.70;99.90;;;;;;5031421;28;20292;-71
2022/04/15 02:43:03;;;;;;;5.07;3.37;;;10.70;99.90;;;;;;5031383;28;20632;-71
2022/04/15 02:45:29;;;;;;;7.23;3.97;;;10.80;99.90;;;;;;5031133;28;20980;-71
2022/04/15 02:47:56;;;;;;;6.80;4.00;;;10.90;99.90;;;;;;5013290;28;20456;-71
2022/04/15 02:50:22;;;;;;;4.90;3.80;;;11.00;99.90;;;;;;5031210;28;20419;-72
2022/04/15 02:52:49;;;;;;;6.20;4.20;;;10.90;99.90;;;;;;5031303;28;20419;-71
2022/04/15 02:55:14;;;;;;;11.27;4.30;;;11.00;99.90;;;;;;5031189;28;20413;-74
2022/04/15 02:57:40;;;;;;;4.70;3.70;;;10.90;99.90;;;;;;5031187;28;20437;-73
2022/04/15 03:00:07;;;;;;;5.40;3.67;;;10.80;99.90;;;;;;5013434;28;20181;-72
2022/04/15 03:02:33;;;;;;;4.40;4.00;;;10.60;99.90;;;;;;5031231;28;20190;-73
2022/04/15 03:04:59;;;;;;;6.27;3.93;;;10.30;99.90;;;;;;5031057;28;20419;-72
2022/04/15 03:07:24;;;;;;;6.43;5.30;;;10.30;99.90;;;;;;5030801;28;20479;-75
2022/04/15 03:09:50;;;;;;;4.60;4.17;;;10.30;99.90;;;;;;5031006;28;20425;-77
2022/04/15 03:12:16;;;;;;;7.67;4.57;;;10.30;99.90;;;;;;5013364;28;20184;-74
2022/04/15 03:14:42;;;;;;;7.10;4.50;;;10.40;99.90;;;;;;5031093;28;20549;-74
2022/04/15 03:17:08;;;;;;;5.23;4.50;;;10.40;99.90;;;;;;5013662;28;20246;-73
2022/04/15 03:19:34;;;;;;;8.20;4.63;;;10.60;99.90;;;;;;5033426;28;20434;-73
2022/04/15 03:22:00;;;;;;;5.87;4.43;;;10.70;99.90;;;;;;5015052;28;20180;-74
2022/04/15 03:24:25;;;;;;;7.17;5.13;;;10.80;99.90;;;;;;5032358;28;20248;-73
2022/04/15 03:26:51;;;;;;;6.43;4.20;;;10.80;99.90;;;;;;5014749;28;20477;-74
2022/04/15 03:29:17;;;;;;;10.73;4.70;;;10.90;99.90;;;;;;5033192;28;20189;-73
2022/04/15 03:31:43;;;;;;;9.37;3.93;;;10.90;99.90;;;;;;5032644;28;20212;-75
2022/04/15 03:34:08;;;;;;;8.90;3.73;;;10.70;99.90;;;;;;5032376;28;20186;-74
2022/04/15 03:36:34;;;;;;;5.70;4.00;;;10.70;99.90;;;;;;5031663;28;20204;-74
2022/04/15 03:38:59;;;;;;;7.63;4.83;;;10.60;99.90;;;;;;5031002;28;20190;-74
2022/04/15 03:41:25;;;;;;;10.27;5.80;;;10.60;99.90;;;;;;5030895;28;20596;-75
2022/04/15 03:43:51;;;;;;;8.70;4.90;;;10.60;99.90;;;;;;5012750;28;20195;-73
2022/04/15 03:46:17;;;;;;;6.43;4.80;;;10.50;99.90;;;;;;5030522;28;20223;-75
2022/04/15 03:48:43;;;;;;;9.97;4.60;;;10.30;99.90;;;;;;5030663;28;20181;-74
2022/04/15 03:51:11;;;;;;;7.70;4.60;;;10.50;99.90;;;;;;5030391;28;20467;-74
2022/04/15 03:53:37;;;;;;;9.43;4.87;;;10.50;99.90;;;;;;5030217;28;20180;-74
2022/04/15 03:56:03;;;;;;;7.53;4.20;;;10.60;99.90;;;;;;5030162;28;20491;-74
2022/04/15 03:58:29;;;;;;;5.23;4.43;;;10.60;99.90;;;;;;5030250;28;20886;-73
2022/04/15 04:00:55;;;;;;;8.10;4.60;;;10.60;99.90;;;;;;5012156;28;20429;-74
2022/04/15 04:03:21;;;;;;;6.60;4.30;;;10.60;99.90;;;;;;5012393;28;20528;-74
2022/04/15 04:05:47;;;;;;;4.47;4.00;;;10.60;99.90;;;;;;5029762;28;21184;-74
2022/04/15 04:08:13;;;;;;;8.07;5.27;;;10.60;99.90;;;;;;5012136;28;20188;-74
2022/04/15 04:10:38;;;;;;;15.13;4.83;;;10.70;99.90;;;;;;5029800;28;20186;-74
2022/04/15 04:13:04;;;;;;;9.63;4.50;;;10.70;99.90;;;;;;5029681;28;20595;-75
2022/04/15 04:15:31;;;;;;;9.30;4.20;;;10.60;99.90;;;;;;5029580;28;20180;-74
2022/04/15 04:17:57;;;;;;;5.00;4.60;;;10.60;99.90;;;;;;5029596;28;20182;-74
2022/04/15 04:20:23;;;;;;;4.40;4.00;;;10.70;99.90;;;;;;5029567;28;20454;-75
2022/04/15 04:22:48;;;;;;;6.90;4.90;;;10.60;99.90;;;;;;5029335;28;20177;-75
2022/04/15 04:25:14;;;;;;;6.90;4.97;;;10.50;99.90;;;;;;4994761;28;20452;-74
2022/04/15 04:27:42;;;;;;;5.60;5.07;;;10.40;99.90;;;;;;5029181;28;20198;-72
2022/04/15 04:30:10;;;;;;;6.67;4.73;;;10.20;99.90;;;;;;5029287;28;20467;-75
2022/04/15 04:32:36;;;;;;;8.67;4.97;;;10.20;99.90;;;;;;5029315;28;20480;-75
2022/04/15 04:35:03;;;;;;;5.90;5.00;;;10.20;99.90;;;;;;5011528;28;20440;-78
2022/04/15 04:37:29;;;;;;;6.43;4.63;;;10.10;99.90;;;;;;4994998;28;20451;-75
2022/04/15 04:39:54;;;;;;;8.13;5.27;;;10.20;99.90;;;;;;5029097;28;20422;-74
2022/04/15 04:42:21;;;;;;;6.30;4.70;;;10.10;99.90;;;;;;5011271;28;20201;-71
2022/04/15 04:44:48;;;;;;;6.73;5.60;;;10.20;99.90;;;;;;5011135;28;20438;-78
2022/04/15 04:47:14;;;;;;;10.07;5.37;;;10.30;99.90;;;;;;4995023;28;20836;-75
2022/04/15 04:49:40;;;;;;;8.03;5.17;;;10.10;99.90;;;;;;5028956;28;20429;-71
2022/04/15 04:52:06;;;;;;;6.77;5.63;;;10.20;99.90;;;;;;5028888;28;20426;-71
2022/04/15 04:54:32;;;;;;;5.63;4.73;;;10.20;99.90;;;;;;5010388;28;20185;-71
2022/04/15 04:56:58;;;;;;;8.70;5.00;;;10.20;99.90;;;;;;5028982;28;20435;-72
2022/04/15 04:59:25;;;;;;;7.30;5.03;;;10.30;99.90;;;;;;5028932;28;20798;-71
2022/04/15 05:01:53;;;;;;;9.13;6.03;;;10.20;99.90;;;;;;5011187;28;20484;-72
2022/04/15 05:04:19;;;;;;;8.87;5.87;;;10.10;99.90;;;;;;5028820;28;20419;-75
2022/04/15 05:06:45;;;;;;;7.73;6.03;;;10.00;99.90;;;;;;5010907;28;20483;-74
2022/04/15 05:09:10;;;;;;;7.40;4.53;;;10.20;99.90;;;;;;5028953;28;20245;-75
2022/04/15 05:11:36;;;;;;;7.97;5.57;;;10.20;99.90;;;;;;5028976;28;20186;-74
2022/04/15 05:14:03;;;;;;;10.90;5.90;;;10.30;99.90;;;;;;5028766;28;20231;-75
2022/04/15 05:16:28;;;;;;;5.50;4.63;;;10.30;99.90;;;;;;5028670;28;20579;-75
2022/04/15 05:18:54;;;;;;;9.00;5.73;;;10.40;99.90;;;;;;5029896;28;20420;-75
2022/04/15 05:21:19;;;;;;;6.50;5.00;;;10.60;99.90;;;;;;5029613;28;20758;-74
2022/04/15 05:23:48;;;;;;;7.80;5.47;;;10.60;99.90;;;;;;5028731;28;20317;-75
2022/04/15 05:26:14;;;;;;;9.57;6.00;;;10.60;99.90;;;;;;5028579;28;20247;-75
2022/04/15 05:28:41;;;;;;;13.20;5.20;;;10.70;99.90;;;;;;5028717;28;20423;-75
2022/04/15 05:31:08;;;;;;;7.50;5.20;;;10.80;99.90;;;;;;5028604;28;20940;-75
2022/04/15 05:33:34;;;;;;;9.40;4.93;;;10.90;99.90;;;;;;5028679;28;20416;-75
2022/04/15 05:35:59;;;;;;;7.67;5.30;;;11.00;99.90;;;;;;5028691;28;20511;-75
2022/04/15 05:38:25;;;;;;;9.50;5.00;;;11.10;99.90;;;;;;5028546;28;20222;-75
2022/04/15 05:40:51;;;;;;;9.00;5.60;;;11.20;99.90;;;;;;5028374;28;20208;-75
2022/04/15 05:43:17;;;;;;;6.23;5.10;;;11.30;99.90;;;;;;5028769;28;20603;-75
2022/04/15 05:45:42;;;;;;;9.37;5.90;;;11.30;99.90;;;;;;5028305;28;20479;-75
2022/04/15 05:48:08;;;;;;;8.13;5.20;;;11.50;99.90;;;;;;5028550;28;20179;-75
2022/04/15 05:50:34;;;;;;;5.47;4.90;;;11.60;99.90;;;;;;5010754;28;20422;-76
2022/04/15 05:53:00;;;;;;;6.17;4.40;;;11.70;99.90;;;;;;5028405;28;20958;-75
2022/04/15 05:55:25;;;;;;;6.17;5.07;;;11.80;99.90;;;;;;5028484;28;20417;-76
2022/04/15 05:57:51;;;;;;;9.40;5.80;;;11.90;99.90;;;;;;5010540;28;20322;-76
2022/04/15 06:00:17;;;;;;;9.50;5.07;;;12.00;99.90;;;;;;5010306;28;20190;-75
2022/04/15 06:02:43;;;;;;;5.63;5.10;;;12.20;99.90;;;;;;5010391;28;20270;-75
2022/04/15 06:05:09;;;;;;;7.90;5.87;;;12.30;99.90;;;;;;5029769;28;20419;-76
2022/04/15 06:07:35;;;;;;;8.23;5.53;;;12.60;99.90;;;;;;4998229;28;20873;-75
2022/04/15 06:10:00;;;;;;;7.33;5.40;;;13.00;99.90;;;;;;5032090;28;20185;-75
2022/04/15 06:12:57;;;;;;;14.13;7.90;;;13.20;99.90;;;;;;5014184;28;20458;-75
2022/04/15 06:15:31;;;;;;;9.00;6.67;;;13.40;99.90;;;;;;5031966;28;20490;-75
2022/04/15 06:18:05;;;;;;;10.03;6.63;;;13.60;99.90;;;;;;5031984;28;20425;-75
2022/04/15 06:20:31;;;;;;;9.93;7.37;;;13.70;99.90;;;;;;5014037;28;20865;-75
2022/04/15 06:22:57;;;;;;;10.63;6.20;;;13.90;99.90;;;;;;5014005;28;20450;-75
2022/04/15 06:25:23;;;;;;;9.70;6.30;;;14.10;99.90;;;;;;5013856;28;20223;-75
2022/04/15 06:27:50;;;;;;;8.33;5.77;;;14.40;99.90;;;;;;5031767;28;20815;-75
2022/04/15 06:30:16;;;;;;;9.60;6.20;;;14.60;99.90;;;;;;5013837;28;20477;-76
2022/04/15 06:32:42;;;;;;;7.73;5.30;;;14.80;99.90;;;;;;5031783;28;20416;-75
2022/04/15 06:35:08;;;;;;;7.87;5.40;;;15.20;99.90;;;;;;5031609;28;20453;-76
2022/04/15 06:37:34;;;;;;;12.23;5.90;;;15.40;99.90;;;;;;5014100;28;20205;-75
2022/04/15 06:39:59;;;;;;;5.97;5.40;;;15.60;99.90;;;;;;5031412;28;21003;-76
2022/04/15 06:42:28;;;;;;;5.17;4.50;;;15.90;99.90;;;;;;4997473;28;20239;-76
2022/04/15 06:44:54;;;;;;;7.10;5.13;;;15.80;99.90;;;;;;5031518;28;20692;-76
2022/04/15 06:47:20;;;;;;;12.60;5.23;;;16.00;99.90;;;;;;5031528;28;20474;-76
2022/04/15 06:49:46;;;;;;;7.93;5.23;;;16.10;99.90;;;;;;5031577;28;20493;-76
2022/04/15 06:52:15;;;;;;;6.63;4.83;;;16.20;99.90;;;;;;5031407;28;20407;-76
2022/04/15 06:54:41;;;;;;;11.43;4.80;;;16.40;99.90;;;;;;5031680;28;21289;-76
2022/04/15 06:57:07;;;;;;;8.43;5.07;;;16.50;99.90;;;;;;5031815;28;20451;-76
2022/04/15 06:59:33;;;;;;;5.53;4.30;;;16.70;99.90;;;;;;5031869;28;20433;-76
2022/04/15 07:02:00;;;;;;;11.67;5.90;;;17.10;99.90;;;;;;5032024;28;20189;-75
2022/04/15 07:04:27;;;;;;;8.07;4.53;;;17.10;99.90;;;;;;5031955;28;20555;-77
2022/04/15 07:06:52;;;;;;;10.33;6.20;;;17.20;99.90;;;;;;5032059;28;20851;-76
2022/04/15 07:09:18;;;;;;;9.60;5.17;;;17.30;99.90;;;;;;4997848;28;20429;-76
2022/04/15 07:11:44;;;;;;;10.63;6.73;;;17.40;99.90;;;;;;5032141;28;20269;-76
2022/04/15 07:14:09;;;;;;;6.30;4.80;;;17.50;99.90;;;;;;5031499;28;20182;-76
2022/04/15 07:16:35;;;;;;;10.30;6.10;;;17.60;99.90;;;;;;5030742;28;20981;-76
2022/04/15 07:19:07;;;;;;;9.90;5.20;;;17.70;99.90;;;;;;5031490;28;20190;-76
2022/04/15 07:21:41;;;;;;;9.03;5.53;;;18.00;99.90;;;;;;5031586;28;20218;-76
2022/04/15 07:24:07;;;;;;;8.17;5.40;;;18.10;99.90;;;;;;5013434;28;20522;-76
2022/04/15 07:26:33;;;;;;;7.83;5.80;;;18.20;99.90;;;;;;5030172;28;20901;-76
2022/04/15 07:28:59;;;;;;;8.10;5.50;;;18.10;99.90;;;;;;5029863;28;20179;-76
2022/04/15 07:31:25;;;;;;;8.30;5.43;;;18.10;99.90;;;;;;5030016;28;20429;-77
2022/04/15 07:33:51;;;;;;;8.07;5.67;;;18.00;99.90;;;;;;4995128;28;20431;-77
2022/04/15 07:39:15;;;;;;;13.97;4.77;;;18.40;99.90;;;;;;4985120;28;20426;-76
2022/04/15 07:41:42;;;;;;;5.80;4.80;;;18.30;99.90;;;;;;5011365;28;21012;-76
2022/04/15 07:44:09;;;;;;;6.40;5.20;;;18.30;99.90;;;;;;5029385;28;20183;-76
2022/04/15 07:46:35;;;;;;;8.20;5.77;;;18.30;99.90;;;;;;5011361;28;20533;-77
2022/04/15 07:49:02;;;;;;;9.20;5.90;;;18.50;99.90;;;;;;5029771;28;20506;-77
2022/04/15 07:51:28;;;;;;;13.70;7.37;;;18.50;99.90;;;;;;5029824;28;21319;-77
2022/04/15 07:53:53;;;;;;;11.20;7.70;;;18.40;99.90;;;;;;5029718;28;20506;-76
2022/04/15 07:56:19;;;;;;;9.77;6.73;;;18.60;99.90;;;;;;5031259;28;20200;-76
2022/04/15 07:58:45;;;;;;;8.13;6.00;;;18.70;99.90;;;;;;5032326;28;20660;-75
2022/04/15 08:01:10;;;;;;;9.37;6.57;;;18.90;99.90;;;;;;5032466;28;20191;-76
2022/04/15 08:03:37;;;;;;;12.97;6.87;;;19.10;99.90;;;;;;5032884;28;20188;-76
2022/04/15 08:06:04;;;;;;;9.77;6.50;;;19.40;99.90;;;;;;5031806;28;20314;-76
2022/04/15 08:08:29;;;;;;;7.77;5.93;;;19.40;99.90;;;;;;5014084;28;20436;-76
2022/04/15 08:10:56;;;;;;;12.50;7.40;;;19.40;99.90;;;;;;5032603;28;20421;-76
2022/04/15 08:13:23;;;;;;;11.07;7.83;;;19.60;99.80;;;;;;5032177;28;20443;-76
2022/04/15 08:15:56;;;;;;;15.60;8.50;;;19.70;99.20;;;;;;5031191;28;20453;-76
2022/04/15 08:18:22;;;;;;;14.07;9.03;;;19.60;99.90;;;;;;5012880;28;20466;-75
2022/04/15 08:20:50;;;;;;;9.17;7.93;;;19.70;99.50;;;;;;4996173;28;20440;-75
2022/04/15 08:23:16;;;;;;;9.17;7.97;;;19.80;99.40;;;;;;5012266;28;20432;-75
2022/04/15 08:25:43;;;;;;;8.93;8.03;;;20.20;99.30;;;;;;5029669;28;20555;-75
2022/04/15 08:28:10;;;;;;;15.87;11.20;;;20.40;98.90;;;;;;5028915;28;20804;-76
2022/04/15 08:30:37;;;;;;;14.40;8.03;;;20.40;97.00;;;;;;5010733;28;20418;-75
2022/04/15 08:33:06;;;;;;;10.60;7.90;;;20.70;97.70;;;;;;5028915;28;20481;-76
2022/04/15 08:35:35;;;;;;;12.57;8.90;;;20.90;95.50;;;;;;5012019;28;20517;-77
2022/04/15 08:38:02;;;;;;;10.47;7.60;;;20.80;95.90;;;;;;5028816;28;20422;-76
2022/04/15 08:40:33;;;;;;;14.00;8.37;;;20.60;95.70;;;;;;4978577;28;20733;-75
2022/04/15 08:43:00;;;;;;;13.30;8.27;;;20.70;97.30;;;;;;5028698;28;20480;-76
2022/04/15 08:45:27;;;;;;;9.07;7.53;;;20.80;97.10;;;;;;5028718;28;20425;-75
2022/04/15 08:47:57;;;;;;;11.83;7.77;;;21.00;97.60;;;;;;5030690;28;21045;-75
2022/04/15 08:50:23;;;;;;;7.70;6.73;;;21.10;97.40;;;;;;4994955;28;20427;-75
2022/04/15 08:52:52;;;;;;;10.60;7.47;;;21.30;97.60;;;;;;5011161;28;20430;-78
2022/04/15 08:55:21;;;;;;;15.30;8.50;;;21.40;97.30;;;;;;5029699;28;20436;-77
2022/04/15 08:57:47;;;;;;;11.10;8.47;;;21.60;97.10;;;;;;5010327;28;20454;-75
2022/04/15 09:00:13;;;;;;;19.67;9.93;;;21.80;95.30;;;;;;5028336;28;20943;-76
2022/04/15 09:02:39;;;;;;;14.10;7.70;;;21.90;95.00;;;;;;5013542;28;20434;-77
2022/04/15 09:05:05;;;;;;;9.87;7.77;;;22.30;95.10;;;;;;5027994;28;20419;-77
2022/04/15 09:07:34;;;;;;;11.47;8.73;;;22.30;94.00;;;;;;5010574;28;20254;-78
2022/04/15 09:10:01;;;;;;;8.70;7.60;;;22.60;94.10;;;;;;5028254;28;20421;-75
2022/04/15 09:12:29;;;;;;;12.50;8.80;;;22.80;92.30;;;;;;5010261;28;20461;-75
2022/04/15 09:14:59;;;;;;;14.43;10.60;;;22.70;91.80;;;;;;5010582;28;20423;-75
2022/04/15 09:17:28;;;;;;;11.30;9.07;;;22.90;90.70;;;;;;5010045;28;20944;-76
2022/04/15 09:19:53;;;;;;;11.17;9.60;;;23.20;90.90;;;;;;5027701;28;20570;-75
2022/04/15 09:22:19;;;;;;;18.23;9.70;;;23.60;90.00;;;;;;4977631;28;21360;-76
2022/04/15 09:24:47;;;;;;;13.73;9.73;;;23.60;89.50;;;;;;5010302;28;20201;-76
2022/04/15 09:27:14;;;;;;;20.77;10.80;;;23.90;89.40;;;;;;5010064;28;20270;-76
2022/04/15 09:29:40;;;;;;;17.03;11.13;;;24.10;87.90;;;;;;5028583;28;20919;-76
2022/04/15 09:32:17;;;;;;;16.13;12.40;;;24.10;81.00;;;;;;5028645;28;20411;-75
2022/04/15 09:34:55;;;;;;;12.53;9.93;;;24.10;79.90;;;;;;5028527;28;20415;-76
2022/04/15 09:37:23;;;;;;;14.03;10.63;;;24.10;84.30;;;;;;5010201;28;20459;-76
2022/04/15 09:40:07;;;;;;;14.63;10.23;;;24.20;83.30;;;;;;5028956;28;20498;-77
2022/04/15 09:42:36;;;;;;;14.70;10.23;;;24.20;86.30;;;;;;5014326;28;20442;-77
2022/04/15 09:45:19;;;;;;;11.63;10.23;;;24.20;81.30;;;;;;5032981;28;20477;-78
2022/04/15 09:47:52;;;;;;;14.20;11.60;;;24.40;79.40;;;;;;5032270;28;20467;-76
2022/04/15 09:50:26;;;;;;;11.87;10.63;;;24.00;78.00;;;;;;5032375;28;20480;-78
2022/04/15 09:52:52;;;;;;;14.40;9.10;;;23.30;77.70;;;;;;5032601;28;20409;-77
2022/04/15 09:55:20;;;;;;;19.80;10.30;;;23.20;83.80;;;;;;5014477;28;20436;-77
2022/04/15 09:57:47;;;;;;;11.63;10.43;;;22.90;81.90;;;;;;5032247;28;20431;-77
2022/04/15 10:00:15;;;;;;;11.33;8.80;;;23.40;82.40;;;;;;5031875;28;20429;-77
2022/04/15 10:02:42;;;;;;;10.13;8.60;;;24.10;81.10;;;;;;5032254;28;20799;-78
2022/04/15 10:05:08;;;;;;;10.17;6.80;;;24.40;82.00;;;;;;5014729;28;20547;-78
2022/04/15 10:07:35;;;;;;;11.63;6.57;;;24.50;74.80;;;;;;5032702;28;20470;-76
2022/04/15 10:10:02;;;;;;;8.53;6.73;;;24.60;73.10;;;;;;5031258;28;20927;-78
2022/04/15 10:12:29;;;;;;;8.03;6.63;;;24.50;73.60;;;;;;5031103;28;20427;-77
2022/04/15 10:14:56;;;;;;;14.13;7.10;;;24.70;75.50;;;;;;5031624;28;20439;-79
2022/04/15 10:17:24;;;;;;;14.90;6.37;;;24.90;72.90;;;;;;5031942;28;20494;-76
2022/04/15 10:19:50;;;;;;;9.33;8.43;;;25.20;72.40;;;;;;5031798;28;20505;-77
2022/04/15 10:22:16;;;;;;;10.33;7.00;;;25.20;73.00;;;;;;5031505;28;20520;-76
2022/04/15 10:24:42;;;;;;;8.73;7.07;;;25.00;73.00;;;;;;5013259;28;20321;-77
2022/04/15 10:27:11;;;;;;;10.27;8.90;;;25.30;73.00;;;;;;5031164;28;20579;-77
2022/04/15 10:29:37;;;;;;;7.93;7.20;;;24.70;69.80;;;;;;5031186;28;20416;-77
2022/04/15 10:32:16;;;;;;;11.27;9.17;;;24.00;72.70;;;;;;5031437;28;20427;-77
2022/04/15 10:34:47;;;;;;;8.80;8.00;;;23.60;74.10;;;;;;5013381;28;20478;-76
2022/04/15 10:37:13;;;;;;;9.50;8.60;;;23.30;74.70;;;;;;5030850;28;20555;-76
2022/04/15 10:39:49;;;;;;;9.97;8.10;;;23.80;76.90;;;;;;5030338;28;20938;-76
2022/04/15 10:42:19;;;;;;;9.00;8.20;;;24.20;75.20;;;;;;5030448;28;20523;-78
2022/04/15 10:44:45;;;;;;;9.03;8.10;;;23.80;72.10;;;;;;5012893;28;20439;-78
2022/04/15 10:47:12;;;;;;;10.97;9.67;;;23.30;73.70;;;;;;5013520;28;20471;-77
2022/04/15 10:49:54;;;;;;;10.67;9.03;;;22.80;74.30;;;;;;5012406;28;20193;-76
2022/04/15 10:52:24;;;;;;;9.80;8.03;;;22.20;76.40;;;;;;5010990;28;20427;-76
2022/04/15 10:54:56;;;;;;;9.43;8.50;;;21.70;80.50;;;;;;5030124;28;20423;-75
2022/04/15 10:57:29;;;;;;;12.97;9.83;;;21.50;80.50;;;;;;5030063;28;20823;-76
2022/04/15 11:02:47;;;;;;;10.00;8.10;;;23.10;80.00;;;;;;5030151;28;20445;-77
2022/04/15 11:05:14;;;;;;;10.63;8.60;;;23.20;78.60;;;;;;5012169;28;20811;-77
2022/04/15 11:07:49;;;;;;;12.37;9.23;;;23.20;78.10;;;;;;5031060;28;20924;-77
2022/04/15 11:10:37;;;;;;;10.83;9.80;;;22.90;76.50;;;;;;5013074;28;20431;-77
2022/04/15 11:13:03;;;;;;;13.87;8.30;;;22.60;77.70;;;;;;5029546;28;20806;-77
2022/04/15 11:15:58;;;;;;;9.73;8.30;;;22.20;79.20;;;;;;5012244;28;20447;-78
2022/04/15 11:18:41;;;;;;;8.73;7.90;;;22.10;79.40;;;;;;5029666;28;21260;-77
2022/04/15 11:21:07;;;;;;;12.07;8.23;;;22.70;78.10;;;;;;5014401;28;20415;-76
2022/04/15 11:23:33;;;;;;;9.83;8.83;;;22.70;76.60;;;;;;5011328;28;20447;-76
2022/04/15 11:26:00;;;;;;;10.20;8.40;;;22.40;77.00;;;;;;5011853;28;20564;-76
2022/04/15 11:28:27;;;;;;;12.00;8.60;;;22.10;78.40;;;;;;5029943;28;20452;-76
2022/04/15 11:30:53;;;;;;;10.83;7.70;;;22.20;77.90;;;;;;5029349;28;20425;-76
2022/04/15 11:33:19;;;;;;;9.80;8.23;;;21.70;79.00;;;;;;5011714;28;20438;-76
2022/04/15 11:35:46;;;;;;;9.83;8.83;;;21.70;79.40;;;;;;5011254;28;20662;-76
2022/04/15 11:38:12;;;;;;;9.63;8.20;;;21.60;79.40;;;;;;5028978;28;20437;-76
2022/04/15 11:40:43;;;;;;;9.37;8.40;;;21.30;78.50;;;;;;5010889;28;20430;-76
2022/04/15 11:43:09;;;;;;;9.03;7.40;;;21.10;80.60;;;;;;5029005;28;20419;-76
2022/04/15 11:45:43;;;;;;;12.07;7.40;;;21.70;81.30;;;;;;5010777;28;20514;-76
2022/04/15 11:48:21;;;;;;;9.03;8.10;;;22.40;82.10;;;;;;5011008;28;20426;-76
2022/04/15 11:50:49;;;;;;;12.43;9.20;;;22.90;78.50;;;;;;5029251;28;21171;-76
2022/04/15 11:53:15;;;;;;;14.57;9.33;;;23.00;77.80;;;;;;5011252;28;20430;-76
2022/04/15 11:55:54;;;;;;;12.30;9.53;;;23.30;78.90;;;;;;5028748;28;20437;-76
2022/04/15 11:58:24;;;;;;;11.00;8.73;;;23.50;77.00;;;;;;5028738;28;20879;-76
2022/04/15 12:00:54;;;;;;;9.00;8.20;;;23.30;75.80;;;;;;5028762;28;21117;-76
2022/04/15 12:03:20;;;;;;;8.97;8.17;;;23.20;77.00;;;;;;5028322;28;20514;-75
2022/04/15 12:05:46;;;;;;;12.10;9.10;;;23.60;75.50;;;;;;5028496;28;20798;-76
2022/04/15 12:08:15;;;;;;;9.40;8.50;;;24.10;74.90;;;;;;5028775;28;21036;-75
2022/04/15 12:10:42;;;;;;;12.63;9.50;;;24.00;70.80;;;;;;5028391;28;20432;-76
2022/04/15 12:13:07;;;;;;;9.60;8.60;;;23.80;71.80;;;;;;5028601;28;20415;-76
2022/04/15 12:15:34;;;;;;;9.93;8.23;;;23.60;74.90;;;;;;5010538;28;20423;-76
2022/04/15 12:18:04;;;;;;;7.77;6.97;;;23.40;73.20;;;;;;5010360;28;20189;-75
2022/04/15 12:20:32;;;;;;;8.17;6.40;;;23.50;73.00;;;;;;5028951;28;20415;-76
2022/04/15 12:22:59;;;;;;;9.70;6.53;;;23.40;73.20;;;;;;5029850;28;20411;-76
2022/04/15 12:25:25;;;;;;;8.27;6.97;;;23.70;73.20;;;;;;5028226;28;20439;-76
2022/04/15 12:27:53;;;;;;;9.40;7.00;;;23.80;71.10;;;;;;5027883;28;21025;-76
2022/04/15 12:30:39;;;;;;;8.57;7.43;;;23.40;71.20;;;;;;5028388;28;20420;-76
2022/04/15 12:33:14;;;;;;;10.67;6.70;;;23.00;73.20;;;;;;5027981;28;20427;-76
2022/04/15 12:36:01;;;;;;;7.20;6.50;;;22.60;74.80;;;;;;5010109;28;20919;-75
2022/04/15 12:38:26;;;;;;;9.23;6.70;;;22.40;73.10;;;;;;5028482;28;20514;-76
2022/04/15 12:40:57;;;;;;;7.27;6.57;;;22.20;75.00;;;;;;5043127;28;20454;-76
2022/04/15 12:43:23;;;;;;;11.67;8.47;;;22.10;75.90;;;;;;5048081;28;20196;-75
2022/04/15 12:45:54;;;;;;;11.13;8.33;;;22.40;76.50;;;;;;5030248;28;20920;-75
2022/04/15 12:48:23;;;;;;;10.00;7.60;;;22.90;73.10;;;;;;5029978;28;20184;-76
2022/04/15 12:50:58;;;;;;;7.47;6.43;;;23.00;72.50;;;;;;5012273;28;20428;-75